createdAt,value
2022-10-17T05:02:58.280Z,101209.36
2022-10-17T05:05:29.088Z,101208.37
2022-10-17T05:07:58.238Z,101209.39
2022-10-17T05:10:32.471Z,101211.23
2022-10-17T05:13:01.250Z,101211.75
2022-10-17T05:15:32.358Z,101208.39
2022-10-17T05:18:01.379Z,101207.30
2022-10-17T05:20:30.810Z,101209.17
2022-10-17T05:23:00.582Z,101205.10
2022-10-17T05:25:33.972Z,101206.11
2022-10-17T05:28:02.906Z,101214.70
2022-10-17T05:30:35.230Z,101214.19
2022-10-17T05:33:08.573Z,101217.08
2022-10-17T05:35:38.133Z,101223.59
2022-10-17T05:38:07.161Z,101233.91
2022-10-17T05:40:36.494Z,101244.21
2022-10-17T05:43:05.673Z,101242.63
2022-10-17T05:45:35.044Z,101245.35
2022-10-17T05:48:04.451Z,101244.13
2022-10-17T05:50:33.929Z,101240.34
2022-10-17T05:53:11.397Z,101241.36
2022-10-17T05:55:46.631Z,101251.11
2022-10-17T05:58:21.965Z,101255.61
2022-10-17T06:00:59.878Z,101255.95
2022-10-17T06:03:29.259Z,101261.31
2022-10-17T06:06:03.992Z,101266.98
2022-10-17T06:08:33.114Z,101267.98
2022-10-17T06:11:06.085Z,101271.05
2022-10-17T06:13:39.700Z,101273.73
2022-10-17T06:16:15.520Z,101275.80
2022-10-17T06:18:44.585Z,101286.70
2022-10-17T06:21:15.858Z,101286.17
2022-10-17T06:23:47.591Z,101293.20
2022-10-17T06:26:28.014Z,101296.98
2022-10-17T06:28:56.464Z,101297.33
2022-10-17T06:31:26.524Z,101301.52
2022-10-17T06:33:55.653Z,101307.62
2022-10-17T06:36:25.082Z,101305.92
2022-10-17T06:38:53.741Z,101302.95
2022-10-17T06:41:33.067Z,101303.44
2022-10-17T06:44:11.892Z,101296.17
2022-10-17T06:47:00.706Z,101293.55
2022-10-17T06:49:30.167Z,101298.00
2022-10-17T06:52:17.782Z,101307.38
2022-10-17T06:55:05.122Z,101308.98
2022-10-17T06:57:54.957Z,101300.31
2022-10-17T07:00:41.882Z,101296.60
2022-10-17T07:03:12.665Z,101297.42
2022-10-17T07:05:41.832Z,101293.88
2022-10-17T07:08:12.202Z,101289.11
2022-10-17T07:10:41.823Z,101298.61
2022-10-17T07:13:11.544Z,101296.08
2022-10-17T07:15:41.086Z,101299.65
2022-10-17T07:18:10.740Z,101307.50
2022-10-17T07:20:41.115Z,101309.51
2022-10-17T07:23:10.181Z,101307.80
2022-10-17T07:25:40.171Z,101312.58
2022-10-17T07:28:12.137Z,101315.80
2022-10-17T07:30:42.317Z,101319.08
2022-10-17T07:33:14.625Z,101325.58
2022-10-17T07:35:43.570Z,101325.45
2022-10-17T07:38:13.380Z,101330.23
2022-10-17T07:40:42.398Z,101325.78
2022-10-17T07:43:12.131Z,101325.63
2022-10-17T07:45:41.886Z,101331.86
2022-10-17T07:48:10.966Z,101337.77
2022-10-17T07:50:40.290Z,101332.55
2022-10-17T07:53:09.038Z,101334.77
2022-10-17T07:55:38.470Z,101332.27
2022-10-17T07:58:07.731Z,101326.48
2022-10-17T08:00:38.175Z,101325.13
2022-10-17T08:03:07.846Z,101323.02
2022-10-17T08:05:36.722Z,101319.94
2022-10-17T08:08:05.585Z,101323.63
2022-10-17T08:10:34.738Z,101314.27
2022-10-17T08:13:04.014Z,101309.33
2022-10-17T08:15:32.368Z,101308.83
2022-10-17T08:18:00.754Z,101315.55
2022-10-17T08:20:29.953Z,101311.83
2022-10-17T08:22:59.079Z,101314.41
2022-10-17T08:25:28.117Z,101308.80
2022-10-17T08:27:57.292Z,101302.80
2022-10-17T08:30:26.467Z,101302.69
2022-10-17T08:32:56.801Z,101306.83
2022-10-17T08:35:25.839Z,101307.85
2022-10-17T08:37:55.007Z,101307.86
2022-10-17T08:40:31.892Z,101304.73
2022-10-17T08:43:01.352Z,101305.61
2022-10-17T08:45:30.311Z,101303.96
2022-10-17T08:48:00.623Z,101302.89
2022-10-17T08:50:32.518Z,101306.59
2022-10-17T08:53:12.404Z,101304.08
2022-10-17T08:55:45.560Z,101303.34
2022-10-17T08:58:18.026Z,101300.49
2022-10-17T09:00:51.311Z,101300.58
2022-10-17T09:03:20.394Z,101298.39
2022-10-17T09:05:57.223Z,101303.48
2022-10-17T09:08:45.044Z,101304.45
2022-10-17T09:11:23.438Z,101302.27
2022-10-17T09:13:59.774Z,101304.54
2022-10-17T09:16:43.653Z,101301.54
2022-10-17T09:19:19.336Z,101294.79
2022-10-17T09:21:53.071Z,101294.19
2022-10-17T09:24:40.076Z,101294.02
2022-10-17T09:27:32.421Z,101295.93
2022-10-17T09:30:26.928Z,101295.41
2022-10-17T09:33:23.068Z,101295.23
2022-10-17T09:36:01.166Z,101296.26
2022-10-17T09:38:41.415Z,101288.05
2022-10-17T09:41:44.792Z,101287.31
2022-10-17T09:44:17.782Z,101290.27
2022-10-17T09:46:53.331Z,101287.52
2022-10-17T09:49:31.922Z,101281.77
2022-10-17T09:52:05.078Z,101285.16
2022-10-17T09:54:40.174Z,101283.74
2022-10-17T09:57:10.389Z,101284.03
2022-10-17T09:59:58.372Z,101281.60
2022-10-17T10:02:28.977Z,101277.51
2022-10-17T10:05:05.932Z,101279.23
2022-10-17T10:07:40.009Z,101278.10
2022-10-17T10:10:26.975Z,101276.79
2022-10-17T10:13:08.468Z,101277.09
2022-10-17T10:15:39.345Z,101274.86
2022-10-17T10:18:26.607Z,101277.52
2022-10-17T10:21:08.253Z,101281.48
2022-10-17T10:23:41.878Z,101277.38
2022-10-17T10:26:25.488Z,101282.27
2022-10-17T10:29:02.766Z,101278.61
2022-10-17T10:31:36.579Z,101278.33
2022-10-17T10:34:17.536Z,101277.77
2022-10-17T10:36:49.057Z,101273.08
2022-10-17T10:39:24.047Z,101270.30
2022-10-17T10:41:53.063Z,101267.64
2022-10-17T10:44:24.802Z,101260.94
2022-10-17T10:47:14.247Z,101259.07
2022-10-17T10:49:44.018Z,101258.56
2022-10-17T10:52:18.100Z,101250.33
2022-10-17T10:55:10.422Z,101251.30
2022-10-17T10:57:40.346Z,101252.79
2022-10-17T11:00:17.125Z,101249.26
2022-10-17T11:02:49.471Z,101245.85
2022-10-17T11:05:27.119Z,101245.70
2022-10-17T11:08:25.051Z,101241.11
2022-10-17T11:11:00.700Z,101249.69
2022-10-17T11:13:38.001Z,101245.84
2022-10-17T11:16:25.286Z,101245.00
2022-10-17T11:18:59.694Z,101246.00
2022-10-17T11:21:31.702Z,101245.02
2022-10-17T11:24:06.928Z,101242.65
2022-10-17T11:26:42.738Z,101240.84
2022-10-17T11:29:13.562Z,101232.18
2022-10-17T11:31:51.819Z,101234.20
2022-10-17T11:34:28.718Z,101230.81
2022-10-17T11:37:00.627Z,101228.53
2022-10-17T11:39:49.928Z,101227.66
2022-10-17T11:42:22.819Z,101226.17
2022-10-17T11:44:54.330Z,101223.05
2022-10-17T11:47:46.332Z,101222.59
2022-10-17T11:53:28.288Z,101215.32
2022-10-17T11:55:59.972Z,101216.92
2022-10-17T11:58:55.379Z,101215.00
2022-10-17T12:01:30.150Z,101208.20
2022-10-17T12:04:18.765Z,101208.92
2022-10-17T12:06:57.234Z,101210.20
2022-10-17T12:09:41.986Z,101206.02
2022-10-17T12:12:11.156Z,101206.77
2022-10-17T12:14:47.413Z,101202.52
2022-10-17T12:17:29.536Z,101200.02
2022-10-17T12:20:21.257Z,101193.17
2022-10-17T12:22:58.894Z,101197.11
2022-10-17T12:25:34.245Z,101194.58
2022-10-17T12:28:09.345Z,101193.79
2022-10-17T12:30:50.281Z,101190.48
2022-10-17T12:33:23.861Z,101184.16
2022-10-17T12:36:12.446Z,101184.83
2022-10-17T12:38:41.457Z,101182.73
2022-10-17T12:41:11.581Z,101178.25
2022-10-17T12:43:44.769Z,101178.65
2022-10-17T12:46:14.503Z,101182.31
2022-10-17T12:48:43.795Z,101177.54
2022-10-17T12:54:15.315Z,101175.80
2022-10-17T12:56:49.137Z,101170.59
2022-10-17T12:59:21.550Z,101170.39
2022-10-17T13:01:53.168Z,101177.77
2022-10-17T13:04:22.884Z,101179.27
2022-10-17T13:06:55.020Z,101173.95
2022-10-17T13:09:26.966Z,101173.64
2022-10-17T13:11:58.359Z,101170.91
2022-10-17T13:14:28.315Z,101166.14
2022-10-17T13:17:01.813Z,101169.28
2022-10-17T13:19:32.516Z,101170.90
2022-10-17T13:22:06.928Z,101173.32
2022-10-17T13:24:40.688Z,101168.47
2022-10-17T13:27:28.907Z,101169.16
2022-10-17T13:29:59.414Z,101167.48
2022-10-17T13:32:36.488Z,101168.64
2022-10-17T13:35:09.357Z,101168.27
2022-10-17T13:37:40.207Z,101166.30
2022-10-17T13:40:40.404Z,101159.83
2022-10-17T13:43:12.629Z,101162.35
2022-10-17T13:45:46.541Z,101163.08
2022-10-17T13:48:20.729Z,101163.96
2022-10-17T13:50:51.462Z,101163.45
2022-10-17T13:53:30.930Z,101161.69
2022-10-17T13:56:26.285Z,101163.20
2022-10-17T13:58:50.611Z,101153.84
2022-10-17T14:01:19.728Z,101153.11
2022-10-17T14:03:51.779Z,101159.91
2022-10-17T14:06:30.984Z,101153.22
2022-10-17T14:08:59.264Z,101148.09
2022-10-17T14:11:33.075Z,101153.70
2022-10-17T14:14:03.305Z,101148.27
2022-10-17T14:16:37.730Z,101143.35
2022-10-17T14:19:07.184Z,101144.08
2022-10-17T14:21:43.971Z,101148.79
2022-10-17T14:24:32.356Z,101151.58
2022-10-17T14:27:01.310Z,101148.20
2022-10-17T14:29:32.605Z,101142.28
2022-10-17T14:32:06.811Z,101138.27
2022-10-17T14:34:38.149Z,101142.40
2022-10-17T14:37:11.317Z,101142.88
2022-10-17T14:39:39.906Z,101137.36
2022-10-17T14:42:16.460Z,101138.15
2022-10-17T14:44:48.753Z,101131.55
2022-10-17T14:47:42.189Z,101125.91
2022-10-17T14:50:20.923Z,101123.27
2022-10-17T14:53:19.612Z,101117.43
2022-10-17T14:55:56.173Z,101117.98
2022-10-17T14:58:28.656Z,101121.50
2022-10-17T15:00:57.966Z,101118.55
2022-10-17T15:03:27.587Z,101120.08
2022-10-17T15:05:56.371Z,101122.25
2022-10-17T15:08:24.951Z,101118.88
2022-10-17T15:10:53.840Z,101115.02
2022-10-17T15:13:32.275Z,101115.27
2022-10-17T15:16:07.905Z,101116.42
2022-10-17T15:18:38.264Z,101116.91
2022-10-17T15:21:26.202Z,101114.11
2022-10-17T15:24:06.830Z,101113.98
2022-10-17T15:26:36.105Z,101112.45
2022-10-17T15:29:05.488Z,101113.26
2022-10-17T15:31:34.755Z,101110.73
2022-10-17T15:34:04.261Z,101109.13
2022-10-17T15:36:43.462Z,101105.97
2022-10-17T15:39:12.666Z,101115.46
2022-10-17T15:41:42.156Z,101115.28
2022-10-17T15:44:11.725Z,101113.91
2022-10-17T15:46:41.962Z,101111.77
2022-10-17T15:49:12.668Z,101111.75
2022-10-17T15:51:45.050Z,101110.34
2022-10-17T15:54:14.282Z,101111.02
2022-10-17T15:56:44.542Z,101110.02
2022-10-17T15:59:19.207Z,101108.23
2022-10-17T16:01:49.246Z,101108.45
2022-10-17T16:04:19.264Z,101108.70
2022-10-17T16:06:48.576Z,101108.80
2022-10-17T16:09:17.070Z,101103.36
2022-10-17T16:11:46.150Z,101105.80
2022-10-17T16:14:16.272Z,101110.16
2022-10-17T16:16:45.435Z,101112.39
2022-10-17T16:19:15.079Z,101116.63
2022-10-17T16:21:44.486Z,101119.27
2022-10-17T16:24:13.600Z,101119.21
2022-10-17T16:26:42.225Z,101117.83
2022-10-17T16:29:11.972Z,101121.60
2022-10-17T16:31:42.670Z,101117.83
2022-10-17T16:34:15.502Z,101116.41
2022-10-17T16:36:44.461Z,101115.38
2022-10-17T16:39:13.529Z,101114.16
2022-10-17T16:41:42.661Z,101118.36
2022-10-17T16:44:15.349Z,101120.38
2022-10-17T16:46:44.999Z,101121.60
2022-10-17T16:49:16.634Z,101121.29
2022-10-17T16:51:45.680Z,101118.86
2022-10-17T16:54:14.427Z,101120.09
2022-10-17T16:56:43.421Z,101115.38
2022-10-17T16:59:12.947Z,101119.19
2022-10-17T17:01:42.239Z,101117.11
2022-10-17T17:04:10.930Z,101113.20
2022-10-17T17:06:39.385Z,101110.73
2022-10-17T17:09:09.881Z,101105.69
2022-10-17T17:11:38.491Z,101098.39
2022-10-17T17:14:07.777Z,101100.56
2022-10-17T17:16:36.973Z,101101.48
2022-10-17T17:19:07.634Z,101101.15
2022-10-17T17:21:36.607Z,101101.56
2022-10-17T17:24:05.808Z,101100.64
2022-10-17T17:26:39.393Z,101096.10
2022-10-17T17:29:08.870Z,101096.46
2022-10-17T17:31:39.547Z,101094.98
2022-10-17T17:34:08.781Z,101092.02
2022-10-17T17:36:39.248Z,101095.15
2022-10-17T17:39:11.865Z,101093.66
2022-10-17T17:41:41.829Z,101097.14
2022-10-17T17:44:15.628Z,101096.08
2022-10-17T17:46:46.990Z,101093.81
2022-10-17T17:49:16.274Z,101089.95
2022-10-17T17:51:46.794Z,101084.94
2022-10-17T17:54:15.643Z,101081.98
2022-10-17T17:56:44.911Z,101079.08
2022-10-17T17:59:14.483Z,101079.14
2022-10-17T18:01:43.964Z,101079.52
2022-10-17T18:04:13.165Z,101075.89
2022-10-17T18:06:42.162Z,101075.64
2022-10-17T18:09:11.749Z,101080.25
2022-10-17T18:11:40.204Z,101079.40
2022-10-17T18:14:12.199Z,101076.83
2022-10-17T18:16:41.564Z,101075.94
2022-10-17T18:19:12.323Z,101073.70
2022-10-17T18:21:41.438Z,101069.40
2022-10-17T18:24:10.777Z,101071.16
2022-10-17T18:26:39.709Z,101069.98
2022-10-17T18:29:09.014Z,101066.17
2022-10-17T18:31:38.278Z,101066.34
2022-10-17T18:34:07.529Z,101062.88
2022-10-17T18:36:37.997Z,101062.71
2022-10-17T18:39:07.099Z,101060.66
2022-10-17T18:41:36.051Z,101057.16
2022-10-17T18:44:05.203Z,101060.92
2022-10-17T18:46:37.083Z,101055.88
2022-10-17T18:49:06.094Z,101057.48
2022-10-17T18:51:35.045Z,101054.09
2022-10-17T18:54:04.155Z,101052.55
2022-10-17T18:56:32.458Z,101050.95
2022-10-17T18:59:01.297Z,101052.48
2022-10-17T19:01:30.271Z,101048.54
2022-10-17T19:04:00.046Z,101049.05
2022-10-17T19:06:32.223Z,101046.35
2022-10-17T19:09:02.597Z,101049.70
2022-10-17T19:11:32.803Z,101047.05
2022-10-17T19:14:03.041Z,101042.84
2022-10-17T19:16:34.340Z,101045.84
2022-10-17T19:19:05.447Z,101046.90
2022-10-17T19:21:35.165Z,101046.52
2022-10-17T19:24:05.906Z,101041.98
2022-10-17T19:26:36.429Z,101042.71
2022-10-17T19:29:05.166Z,101038.13
2022-10-17T19:31:35.143Z,101034.86
2022-10-17T19:34:04.997Z,101028.36
2022-10-17T19:36:34.245Z,101024.54
2022-10-17T19:39:08.257Z,101024.11
2022-10-17T19:41:37.638Z,101022.54
2022-10-17T19:44:06.915Z,101023.36
2022-10-17T19:46:36.009Z,101022.34
2022-10-17T19:49:05.683Z,101025.38
2022-10-17T19:51:34.727Z,101017.94
2022-10-17T19:54:03.351Z,101012.94
2022-10-17T19:56:33.273Z,101017.10
2022-10-17T19:59:02.767Z,101015.45
2022-10-17T20:01:32.915Z,101012.67
2022-10-17T20:04:01.577Z,101013.33
2022-10-17T20:06:30.164Z,101010.96
2022-10-17T20:08:58.801Z,101010.50
2022-10-17T20:11:29.105Z,101008.77
2022-10-17T20:13:57.888Z,101008.05
2022-10-17T20:16:27.814Z,101010.55
2022-10-17T20:18:57.384Z,101011.43
2022-10-17T20:21:28.699Z,101012.44
2022-10-17T20:24:02.106Z,101012.05
2022-10-17T20:26:39.775Z,101010.42
2022-10-17T20:29:11.689Z,101005.50
2022-10-17T20:31:41.792Z,101006.00
2022-10-17T20:34:13.302Z,101007.30
2022-10-17T20:36:42.170Z,101010.79
2022-10-17T20:39:12.539Z,101013.88
2022-10-17T20:41:41.404Z,101018.56
2022-10-17T20:44:10.320Z,101025.05
2022-10-17T20:46:44.892Z,101026.34
2022-10-17T20:49:18.668Z,101025.90
2022-10-17T20:51:48.085Z,101023.71
2022-10-17T20:54:17.131Z,101023.44
2022-10-17T20:56:46.297Z,101023.72
2022-10-17T20:59:16.982Z,101018.93
2022-10-17T21:01:46.315Z,101013.54
2022-10-17T21:04:44.052Z,101014.77
2022-10-17T21:07:05.716Z,101014.33
2022-10-17T21:09:34.916Z,101018.23
2022-10-17T21:12:05.839Z,101022.18
2022-10-17T21:14:36.519Z,101020.85
2022-10-17T21:17:05.597Z,101017.20
2022-10-17T21:19:34.345Z,101017.80
2022-10-17T21:22:02.732Z,101018.40
2022-10-17T21:24:31.185Z,101019.94
2022-10-17T21:26:59.706Z,101020.44
2022-10-17T21:29:28.395Z,101019.64
2022-10-17T21:31:57.420Z,101014.39
2022-10-17T21:34:26.426Z,101015.96
2022-10-17T21:36:55.802Z,101015.91
2022-10-17T21:39:25.598Z,101019.27
2022-10-17T21:41:55.104Z,101018.59
2022-10-17T21:44:25.604Z,101016.20
2022-10-17T21:46:56.464Z,101011.50
2022-10-17T21:49:26.262Z,101010.29
2022-10-17T21:51:55.259Z,101011.35
2022-10-17T21:54:24.650Z,101007.90
2022-10-17T21:56:53.628Z,101009.27
2022-10-17T21:59:22.757Z,101009.90
2022-10-17T22:01:51.572Z,101011.13
2022-10-17T22:04:20.759Z,101009.58
2022-10-17T22:06:51.635Z,101004.26
2022-10-17T22:09:22.409Z,101009.23
2022-10-17T22:11:52.485Z,101004.73
2022-10-17T22:14:22.370Z,101006.84
2022-10-17T22:16:52.049Z,101008.98
2022-10-17T22:19:27.402Z,101007.33
2022-10-17T22:21:56.379Z,101008.42
2022-10-17T22:24:25.614Z,101011.80
2022-10-17T22:26:54.426Z,101013.55
2022-10-17T22:29:23.508Z,101011.74
2022-10-17T22:31:52.612Z,101008.55
2022-10-17T22:34:21.442Z,101003.29
2022-10-17T22:36:50.554Z,101005.79
2022-10-17T22:39:19.931Z,101003.50
2022-10-17T22:41:49.663Z,100999.48
2022-10-17T22:44:18.570Z,100997.58
2022-10-17T22:46:47.605Z,100995.29
2022-10-17T22:49:16.466Z,100991.62
2022-10-17T22:51:45.313Z,100987.26
2022-10-17T22:54:14.494Z,100984.29
2022-10-17T22:56:43.624Z,100980.05
2022-10-17T22:59:12.734Z,100973.54
2022-10-17T23:01:41.965Z,100972.47
2022-10-17T23:04:10.935Z,100974.12
2022-10-17T23:06:39.934Z,100974.37
2022-10-17T23:09:09.047Z,100975.07
2022-10-17T23:11:38.194Z,100976.61
2022-10-17T23:14:07.292Z,100968.02
2022-10-17T23:16:36.303Z,100972.48
2022-10-17T23:19:05.288Z,100975.31
2022-10-17T23:21:34.214Z,100973.55
2022-10-17T23:24:03.565Z,100973.63
2022-10-17T23:26:32.609Z,100970.02
2022-10-17T23:29:00.865Z,100964.77
2022-10-17T23:31:30.093Z,100967.45
2022-10-17T23:33:59.118Z,100961.23
2022-10-17T23:36:28.081Z,100961.45
2022-10-17T23:38:58.597Z,100958.23
2022-10-17T23:41:28.245Z,100957.13
2022-10-17T23:43:57.538Z,100956.07
2022-10-17T23:46:26.215Z,100959.58
2022-10-17T23:48:55.542Z,100953.93
2022-10-17T23:51:24.580Z,100948.28
2022-10-17T23:53:53.729Z,100941.80
2022-10-17T23:56:22.686Z,100945.52
2022-10-17T23:58:51.763Z,100940.31
